Time;durP1;ratioP1;P1;durP2;ratioP2;P2;SDS_P1;SDS_P2;PMS_P1;PMS_P2;Temp;Humidity;BMP_temperature;BMP_pressure;BME280_temperature;BME280_humidity;BME280_pressure;Samples;Min_cycle;Max_cycle;Signal;HPM_P1;HPM_P2
2022/02/05 00:00:30;;;;;;;15.68;10.57;;;7.70;99.90;;;;;;4937652;29;20094;-84
2022/02/05 00:05:45;;;;;;;13.98;10.48;;;7.60;99.90;;;;;;4936862;29;20055;-85
2022/02/05 00:20:09;;;;;;;18.15;14.18;;;7.80;99.90;;;;;;4937990;29;20038;-85
2022/02/05 00:38:51;;;;;;;15.30;11.80;;;8.20;99.90;;;;;;4763948;30;20090;-84
2022/02/05 00:43:41;;;;;;;14.20;11.43;;;8.30;99.90;;;;;;4751015;30;20402;-84
2022/02/05 00:46:08;;;;;;;13.77;11.10;;;8.30;99.90;;;;;;4752988;30;20051;-85
2022/02/05 00:48:33;;;;;;;14.68;11.20;;;8.30;99.90;;;;;;4752114;30;20127;-85
2022/02/05 00:51:11;;;;;;;13.60;11.60;;;8.40;99.90;;;;;;4753435;30;20505;-85
2022/02/05 00:53:39;;;;;;;12.98;10.95;;;8.50;99.90;;;;;;4752846;30;20055;-85
2022/02/05 00:56:18;;;;;;;15.15;11.35;;;8.50;99.90;;;;;;4751418;30;20043;-84
2022/02/05 00:58:43;;;;;;;16.05;10.98;;;8.20;99.90;;;;;;4753955;30;20036;-84
2022/02/05 01:01:10;;;;;;;14.00;11.00;;;8.40;99.90;;;;;;4755901;29;20196;-84
2022/02/05 01:03:39;;;;;;;14.52;11.32;;;8.40;99.90;;;;;;4755776;30;20069;-85
2022/02/05 01:06:06;;;;;;;13.70;10.75;;;8.40;99.90;;;;;;4796161;29;20030;-84
2022/02/05 01:08:33;;;;;;;14.55;10.98;;;8.40;99.90;;;;;;4843323;29;20049;-84
2022/02/05 01:10:59;;;;;;;14.65;11.55;;;8.50;99.90;;;;;;4827781;29;20022;-85
2022/02/05 01:13:27;;;;;;;14.30;11.23;;;8.40;99.90;;;;;;4859768;29;20081;-85
2022/02/05 01:16:11;;;;;;;13.43;10.23;;;8.20;99.90;;;;;;4927022;29;20055;-85
2022/02/05 01:18:39;;;;;;;13.93;10.77;;;8.10;99.90;;;;;;4943121;29;20023;-84
2022/02/05 01:23:40;;;;;;;15.60;11.30;;;8.20;99.90;;;;;;4940590;29;20605;-85
2022/02/05 01:28:43;;;;;;;13.07;10.18;;;8.20;99.90;;;;;;4939382;29;20024;-84
2022/02/05 01:31:09;;;;;;;12.88;10.32;;;7.60;99.90;;;;;;4924405;29;20521;-85
2022/02/05 01:52:26;;;;;;;14.63;11.68;;;7.90;99.90;;;;;;4940964;29;20023;-85
2022/02/05 01:57:27;;;;;;;13.45;10.85;;;8.00;99.90;;;;;;4940131;29;20488;-85
2022/02/05 02:05:39;;;;;;;11.43;10.20;;;8.30;99.90;;;;;;4939715;29;20086;-85
2022/02/05 02:16:03;;;;;;;12.00;9.48;;;8.50;99.90;;;;;;4939404;29;20040;-85
2022/02/05 02:24:12;;;;;;;13.10;10.35;;;8.50;99.90;;;;;;4939549;29;20043;-86
2022/02/05 02:29:03;;;;;;;11.45;9.60;;;8.40;99.90;;;;;;4936159;29;20027;-85
2022/02/05 02:31:35;;;;;;;12.20;9.88;;;8.50;99.90;;;;;;4947524;29;20050;-85
2022/02/05 02:34:03;;;;;;;12.63;9.90;;;8.50;99.90;;;;;;4939440;29;20043;-85
2022/02/05 02:39:12;;;;;;;13.00;9.15;;;8.60;99.90;;;;;;4939430;29;20023;-85
2022/02/05 02:42:20;;;;;;;11.23;10.00;;;8.50;99.90;;;;;;4939600;29;20396;-85
2022/02/05 02:44:26;;;;;;;11.50;10.02;;;8.50;99.90;;;;;;4933081;29;20064;-85
2022/02/05 02:46:52;;;;;;;11.77;10.18;;;8.50;99.90;;;;;;4935913;29;20117;-85
2022/02/05 02:49:32;;;;;;;11.95;10.23;;;8.60;99.90;;;;;;4940079;29;20047;-86
2022/02/05 02:57:29;;;;;;;13.02;10.30;;;8.40;99.90;;;;;;4939131;29;20030;-85
2022/02/05 02:59:59;;;;;;;15.07;11.80;;;8.70;99.90;;;;;;4938554;29;20403;-85
2022/02/05 03:02:27;;;;;;;18.02;12.40;;;8.40;99.90;;;;;;4938022;29;20389;-85
2022/02/05 03:04:54;;;;;;;14.25;11.10;;;8.30;99.90;;;;;;4934629;29;20043;-85
2022/02/05 03:07:21;;;;;;;15.43;12.30;;;8.30;99.90;;;;;;4939783;29;20032;-85
2022/02/05 03:09:47;;;;;;;15.38;11.98;;;8.40;99.90;;;;;;4938757;29;20039;-85
2022/02/05 03:12:13;;;;;;;14.85;11.57;;;8.40;99.90;;;;;;4938765;29;20036;-85
2022/02/05 03:14:39;;;;;;;15.57;13.02;;;8.40;99.90;;;;;;4938479;29;20403;-85
2022/02/05 03:17:15;;;;;;;15.57;13.02;;;8.30;99.90;;;;;;4934983;29;20023;-85
2022/02/05 03:19:47;;;;;;;17.63;15.00;;;8.30;99.90;;;;;;4936983;29;20535;-85
2022/02/05 03:22:23;;;;;;;17.90;14.32;;;8.40;99.90;;;;;;4937250;29;20130;-85
2022/02/05 03:24:50;;;;;;;14.88;12.35;;;8.30;99.90;;;;;;4938889;29;20404;-85
2022/02/05 03:27:18;;;;;;;17.65;13.88;;;8.20;99.90;;;;;;4922503;29;20047;-85
2022/02/05 03:29:47;;;;;;;17.58;14.27;;;8.30;99.90;;;;;;4938929;29;20031;-85
2022/02/05 03:32:18;;;;;;;15.63;13.20;;;8.30;99.90;;;;;;4935781;29;20028;-85
2022/02/05 03:34:44;;;;;;;18.83;14.60;;;8.20;99.90;;;;;;4936293;29;20606;-85
2022/02/05 03:37:10;;;;;;;18.08;13.85;;;8.20;99.90;;;;;;4938880;29;20053;-86
2022/02/05 03:39:36;;;;;;;14.90;13.18;;;8.10;99.90;;;;;;4938594;29;20389;-85
2022/02/05 03:42:02;;;;;;;17.38;14.10;;;8.10;99.90;;;;;;4922098;29;20051;-85
2022/02/05 03:44:28;;;;;;;18.45;13.27;;;8.00;99.90;;;;;;4922280;29;20366;-85
2022/02/05 03:46:55;;;;;;;16.42;13.35;;;8.40;99.90;;;;;;4935249;29;20114;-84
2022/02/05 03:49:22;;;;;;;16.75;13.38;;;8.30;99.90;;;;;;4938794;29;20028;-85
2022/02/05 03:51:49;;;;;;;16.98;13.23;;;8.30;99.90;;;;;;4938235;29;20522;-85
2022/02/05 03:54:20;;;;;;;18.48;13.60;;;8.30;99.90;;;;;;4938361;29;20039;-84
2022/02/05 03:56:49;;;;;;;18.65;13.98;;;8.40;99.90;;;;;;4937744;29;20031;-85
2022/02/05 03:59:15;;;;;;;18.33;14.07;;;8.40;99.90;;;;;;4935352;29;20122;-85
2022/02/05 04:01:41;;;;;;;15.90;13.95;;;8.50;99.90;;;;;;4919669;29;20032;-85
2022/02/05 04:04:07;;;;;;;18.77;14.50;;;8.30;99.90;;;;;;4939455;29;20032;-85
2022/02/05 04:06:33;;;;;;;20.58;14.65;;;8.30;99.90;;;;;;4938104;29;20171;-85
2022/02/05 04:09:04;;;;;;;18.38;14.63;;;8.30;99.90;;;;;;4937908;29;20107;-85
2022/02/05 04:16:40;;;;;;;19.63;15.10;;;8.00;99.90;;;;;;4947328;29;20030;-85
2022/02/05 04:19:05;;;;;;;16.98;14.60;;;7.90;99.90;;;;;;4938813;29;20031;-85
2022/02/05 04:21:33;;;;;;;18.52;15.25;;;7.90;99.90;;;;;;4938312;29;20032;-85
2022/02/05 04:24:01;;;;;;;19.75;15.13;;;7.90;99.90;;;;;;4925984;29;20254;-85
2022/02/05 04:26:27;;;;;;;17.85;14.68;;;7.80;99.90;;;;;;4949321;29;20039;-85
2022/02/05 04:28:53;;;;;;;21.30;15.80;;;8.00;99.90;;;;;;4933497;29;20031;-84
2022/02/05 04:31:19;;;;;;;16.80;15.00;;;8.10;99.90;;;;;;4941532;29;20038;-85
2022/02/05 04:33:44;;;;;;;19.63;15.40;;;8.00;99.90;;;;;;4941935;29;20480;-85
2022/02/05 04:36:11;;;;;;;18.08;14.32;;;7.80;99.90;;;;;;4942293;29;20055;-85
2022/02/05 04:38:40;;;;;;;17.50;15.25;;;7.70;99.90;;;;;;4937743;29;20459;-85
2022/02/05 04:41:19;;;;;;;17.35;14.98;;;7.60;99.90;;;;;;4937704;29;20038;-84
2022/02/05 04:46:34;;;;;;;17.05;14.60;;;7.80;99.90;;;;;;4938272;29;20027;-85
2022/02/05 05:02:07;;;;;;;17.50;15.27;;;8.00;99.90;;;;;;4940087;29;20054;-85
2022/02/05 05:04:40;;;;;;;17.95;15.48;;;7.50;99.90;;;;;;4949078;29;20031;-85
2022/02/05 05:10:04;;;;;;;18.63;14.68;;;7.50;99.90;;;;;;4942132;29;20493;-85
2022/02/05 05:12:37;;;;;;;17.08;15.02;;;7.50;99.90;;;;;;4948409;29;20037;-85
2022/02/05 05:20:27;;;;;;;20.77;14.02;;;7.40;99.90;;;;;;4874958;29;20406;-85
2022/02/05 05:22:52;;;;;;;17.58;13.98;;;7.50;99.90;;;;;;4877584;29;20067;-84
2022/02/05 05:25:18;;;;;;;12.00;10.38;;;7.70;99.90;;;;;;4878271;29;20035;-85
2022/02/05 05:27:45;;;;;;;12.27;8.90;;;7.20;99.90;;;;;;4877029;29;20071;-85
2022/02/05 05:30:11;;;;;;;9.45;7.70;;;7.20;99.90;;;;;;4874951;29;20028;-85
2022/02/05 05:32:37;;;;;;;8.82;7.35;;;7.20;99.90;;;;;;4876767;29;20121;-85
2022/02/05 05:35:04;;;;;;;7.10;6.10;;;7.50;99.90;;;;;;4878311;29;20469;-85
2022/02/05 05:37:30;;;;;;;6.93;5.68;;;7.20;99.90;;;;;;4878496;29;20148;-85
2022/02/05 05:39:56;;;;;;;7.00;5.50;;;7.10;99.90;;;;;;4876480;29;20104;-85
2022/02/05 05:42:25;;;;;;;10.60;5.55;;;7.00;99.90;;;;;;4876068;29;20540;-85
2022/02/05 05:52:17;;;;;;;4.82;2.72;;;7.10;99.90;;;;;;4877171;29;20591;-85
2022/02/05 05:54:43;;;;;;;5.25;2.75;;;6.90;99.90;;;;;;4876496;29;20032;-85
2022/02/05 05:57:10;;;;;;;5.40;2.60;;;6.90;99.90;;;;;;4900182;29;20043;-85
2022/02/05 05:59:37;;;;;;;5.72;2.38;;;6.90;99.90;;;;;;4934798;29;20027;-85
2022/02/05 06:02:03;;;;;;;4.30;2.20;;;6.90;99.90;;;;;;4934977;29;20043;-85
2022/02/05 06:04:28;;;;;;;4.45;2.35;;;6.80;99.90;;;;;;4952188;29;20019;-84
2022/02/05 06:06:54;;;;;;;4.15;2.20;;;6.80;99.90;;;;;;4946851;29;20113;-85
2022/02/05 06:09:19;;;;;;;4.22;2.55;;;7.00;99.90;;;;;;4948414;29;20167;-85
2022/02/05 06:11:45;;;;;;;7.97;2.42;;;6.70;99.90;;;;;;4928215;29;20039;-85
2022/02/05 06:14:12;;;;;;;3.67;2.45;;;6.60;99.90;;;;;;4951146;29;20091;-84
2022/02/05 06:16:38;;;;;;;4.18;2.15;;;6.50;99.90;;;;;;4939137;29;20099;-85
2022/02/05 06:19:04;;;;;;;6.40;2.28;;;6.80;99.90;;;;;;4952627;29;20131;-85
2022/02/05 06:21:30;;;;;;;3.45;2.20;;;6.60;99.90;;;;;;4943712;29;20475;-85
2022/02/05 06:23:55;;;;;;;4.40;2.65;;;6.60;99.90;;;;;;4935837;29;20038;-85
2022/02/05 06:26:21;;;;;;;5.53;2.40;;;6.60;99.90;;;;;;4938210;29;20114;-85
2022/02/05 06:28:46;;;;;;;4.63;2.47;;;6.60;99.90;;;;;;4937625;29;20031;-85
2022/02/05 06:31:12;;;;;;;4.85;2.05;;;6.70;99.90;;;;;;4936689;29;20127;-85
2022/02/05 06:33:38;;;;;;;6.88;2.22;;;6.60;99.90;;;;;;4940217;29;20031;-85
2022/02/05 06:36:04;;;;;;;4.05;2.33;;;6.40;99.90;;;;;;4939339;29;20104;-85
2022/02/05 06:38:29;;;;;;;4.30;2.15;;;6.40;99.90;;;;;;4950738;29;20507;-85
2022/02/05 06:40:55;;;;;;;4.78;2.25;;;6.40;99.90;;;;;;4936244;29;20078;-85
2022/02/05 06:43:21;;;;;;;5.30;2.83;;;6.50;99.90;;;;;;4940267;29;20135;-85
2022/02/05 06:45:46;;;;;;;5.80;2.30;;;6.40;99.90;;;;;;4949070;29;20035;-86
2022/02/05 06:48:14;;;;;;;9.85;2.42;;;6.50;99.90;;;;;;4945713;29;20028;-84
2022/02/05 06:50:40;;;;;;;4.60;2.13;;;6.40;99.90;;;;;;4935455;29;20051;-85
2022/02/05 06:53:06;;;;;;;3.65;2.25;;;6.30;99.90;;;;;;4934886;29;20103;-85
2022/02/05 06:55:31;;;;;;;5.93;2.85;;;6.60;99.90;;;;;;4951388;29;20067;-85
2022/02/05 06:57:57;;;;;;;5.20;2.47;;;6.40;99.90;;;;;;4946072;29;20088;-85
2022/02/05 07:00:22;;;;;;;5.40;2.30;;;6.40;99.90;;;;;;4939978;29;20020;-84
2022/02/05 07:02:50;;;;;;;3.50;2.30;;;6.30;99.90;;;;;;4938963;29;20046;-85
2022/02/05 07:05:16;;;;;;;4.22;2.50;;;6.40;99.90;;;;;;4936137;29;20032;-84
2022/02/05 07:07:42;;;;;;;3.33;2.17;;;6.30;99.90;;;;;;4937210;29;20171;-86
2022/02/05 07:10:09;;;;;;;5.65;2.30;;;6.40;99.90;;;;;;4922552;29;20054;-84
2022/02/05 07:12:46;;;;;;;3.90;2.33;;;6.30;99.90;;;;;;4939087;29;20027;-85
2022/02/05 07:15:18;;;;;;;6.13;2.45;;;6.40;99.90;;;;;;4938432;29;20032;-84
2022/02/05 07:20:52;;;;;;;5.13;2.60;;;6.30;99.90;;;;;;4838386;29;20129;-85
2022/02/05 07:31:17;;;;;;;3.45;2.22;;;6.20;99.90;;;;;;4839334;29;20056;-85
2022/02/05 07:33:43;;;;;;;2.72;2.10;;;6.20;99.90;;;;;;4823001;29;20026;-85
2022/02/05 07:36:11;;;;;;;5.70;2.90;;;6.60;99.90;;;;;;4837642;29;20114;-85
2022/02/05 07:38:37;;;;;;;4.72;1.95;;;6.10;99.90;;;;;;4838460;29;20238;-85
2022/02/05 07:41:03;;;;;;;5.63;3.67;;;6.20;99.90;;;;;;4838612;29;20034;-85
2022/02/05 07:43:35;;;;;;;5.65;3.67;;;6.20;99.90;;;;;;4834782;29;20065;-86
2022/02/05 07:46:02;;;;;;;7.25;4.20;;;6.30;99.90;;;;;;4838570;29;20126;-85
2022/02/05 07:48:28;;;;;;;5.93;3.45;;;6.80;99.90;;;;;;4838408;29;20034;-85
2022/02/05 07:50:55;;;;;;;5.25;2.50;;;6.40;99.90;;;;;;4838072;29;20461;-85
2022/02/05 07:53:21;;;;;;;4.05;2.13;;;6.30;99.90;;;;;;4838694;29;20094;-85
2022/02/05 07:55:46;;;;;;;3.70;2.33;;;6.40;99.90;;;;;;4860315;29;20078;-85
2022/02/05 07:58:12;;;;;;;8.15;4.20;;;6.90;99.90;;;;;;4917847;29;20458;-85
2022/02/05 08:00:38;;;;;;;6.63;1.80;;;6.60;99.90;;;;;;4919200;29;20035;-85
2022/02/05 08:03:03;;;;;;;4.40;1.98;;;7.00;99.90;;;;;;4918804;29;20477;-85
2022/02/05 08:05:29;;;;;;;6.22;2.42;;;6.60;99.90;;;;;;4916500;29;20035;-85
2022/02/05 08:07:55;;;;;;;5.13;2.00;;;7.00;99.90;;;;;;4915842;29;20123;-85
2022/02/05 08:10:26;;;;;;;6.53;2.55;;;6.50;99.90;;;;;;4919941;29;20028;-85
2022/02/05 08:12:55;;;;;;;5.00;2.28;;;6.80;99.90;;;;;;4918660;29;20063;-85
2022/02/05 08:15:23;;;;;;;4.65;3.55;;;6.90;99.90;;;;;;4919029;29;20087;-86
2022/02/05 08:17:50;;;;;;;3.13;2.10;;;7.70;99.90;;;;;;4918965;29;20461;-86
2022/02/05 08:20:15;;;;;;;3.95;2.30;;;10.40;99.90;;;;;;4916351;29;20022;-86
2022/02/05 08:22:42;;;;;;;4.63;2.13;;;11.70;99.90;;;;;;4917292;29;20047;-86
2022/02/05 08:25:08;;;;;;;3.40;1.83;;;13.20;99.90;;;;;;4919303;29;20072;-86
2022/02/05 08:27:35;;;;;;;3.47;2.30;;;12.80;99.90;;;;;;4918638;29;20091;-86
2022/02/05 08:30:06;;;;;;;3.75;1.63;;;10.00;99.90;;;;;;4919216;29;20028;-86
2022/02/05 08:32:33;;;;;;;5.53;1.65;;;8.50;99.90;;;;;;4918252;29;20035;-86
2022/02/05 08:35:00;;;;;;;3.78;1.73;;;8.30;99.90;;;;;;4914890;29;20506;-84
2022/02/05 08:37:28;;;;;;;3.17;1.67;;;7.60;99.90;;;;;;4919358;29;20039;-85
2022/02/05 08:39:53;;;;;;;3.42;1.80;;;6.80;99.90;;;;;;4918482;29;20041;-83
2022/02/05 08:42:19;;;;;;;4.72;1.90;;;6.80;99.90;;;;;;4923928;29;20052;-85
2022/02/05 08:44:45;;;;;;;3.83;1.95;;;6.90;99.90;;;;;;4920703;29;20063;-83
2022/02/05 08:47:10;;;;;;;4.45;2.30;;;6.80;99.90;;;;;;4934256;29;20102;-84
2022/02/05 08:49:36;;;;;;;5.00;2.00;;;6.80;99.90;;;;;;4936783;29;20545;-84
2022/02/05 08:52:06;;;;;;;4.45;1.98;;;7.00;99.90;;;;;;4938163;29;20036;-83
2022/02/05 08:54:32;;;;;;;4.90;2.30;;;7.00;99.90;;;;;;4937731;29;20139;-84
2022/02/05 08:56:58;;;;;;;8.07;3.67;;;6.80;99.90;;;;;;4937566;29;20114;-84
2022/02/05 08:59:26;;;;;;;4.55;2.40;;;6.70;99.90;;;;;;4936402;29;20114;-83
2022/02/05 09:02:10;;;;;;;3.50;2.13;;;7.00;99.90;;;;;;4933952;29;20067;-86
2022/02/05 09:04:48;;;;;;;7.10;3.20;;;6.70;99.90;;;;;;4946162;29;20113;-84
2022/02/05 09:07:14;;;;;;;5.15;3.05;;;6.80;99.90;;;;;;4921344;29;20039;-84
2022/02/05 09:13:09;;;;;;;3.67;2.28;;;7.60;99.90;;;;;;4937771;29;20036;-85
2022/02/05 09:15:06;;;;;;;5.25;1.73;;;7.10;99.90;;;;;;4931998;29;20123;-83
2022/02/05 09:17:32;;;;;;;4.95;1.63;;;7.10;99.90;;;;;;4939254;29;20046;-85
2022/02/05 09:19:57;;;;;;;3.25;1.90;;;7.20;99.90;;;;;;4920125;29;20023;-85
2022/02/05 09:22:23;;;;;;;4.80;1.70;;;7.70;99.90;;;;;;4941107;29;20508;-85
2022/02/05 09:24:49;;;;;;;7.32;2.03;;;8.10;99.90;;;;;;4941641;29;20027;-85
2022/02/05 09:27:16;;;;;;;4.90;1.90;;;7.80;99.90;;;;;;4924748;29;20035;-84
2022/02/05 09:30:00;;;;;;;5.32;1.95;;;7.90;99.90;;;;;;4940162;29;20035;-85
2022/02/05 09:32:27;;;;;;;4.80;1.67;;;9.70;99.90;;;;;;4921945;29;20403;-84
2022/02/05 09:34:53;;;;;;;4.75;1.70;;;12.10;99.90;;;;;;4937311;29;20036;-85
2022/02/05 09:37:20;;;;;;;3.40;2.22;;;14.30;99.90;;;;;;4941665;29;20106;-85
2022/02/05 09:39:46;;;;;;;4.55;1.77;;;13.90;99.90;;;;;;4940275;29;20027;-84
2022/02/05 09:42:12;;;;;;;2.95;1.70;;;11.60;99.90;;;;;;4939656;29;20052;-84
2022/02/05 09:44:38;;;;;;;4.00;1.65;;;12.90;99.90;;;;;;4940571;29;20314;-84
2022/02/05 09:47:05;;;;;;;3.80;1.63;;;15.40;99.90;;;;;;4936077;29;20026;-84
2022/02/05 09:49:30;;;;;;;3.30;1.70;;;14.20;99.90;;;;;;4940679;29;20492;-84
2022/02/05 09:52:12;;;;;;;3.13;1.63;;;13.70;99.90;;;;;;4939837;29;20058;-84
2022/02/05 09:54:39;;;;;;;5.72;1.80;;;16.90;99.90;;;;;;4940312;29;20028;-84
2022/02/05 09:57:06;;;;;;;3.03;1.35;;;14.80;99.90;;;;;;4940785;29;20051;-84
2022/02/05 09:59:45;;;;;;;2.40;1.50;;;15.50;99.90;;;;;;4939307;29;20620;-84
2022/02/05 10:02:30;;;;;;;3.58;1.67;;;13.00;99.90;;;;;;4922839;29;20039;-84
2022/02/05 10:04:57;;;;;;;3.10;1.73;;;11.70;99.90;;;;;;4936939;29;20059;-84
2022/02/05 10:07:24;;;;;;;4.30;1.70;;;11.10;99.90;;;;;;4940480;29;20030;-84
2022/02/05 10:09:55;;;;;;;3.08;1.63;;;14.50;99.90;;;;;;4939887;29;20027;-84
2022/02/05 10:12:21;;;;;;;3.40;1.50;;;14.90;99.90;;;;;;4940019;29;20027;-85
2022/02/05 10:14:51;;;;;;;4.15;1.98;;;17.90;99.90;;;;;;4939383;29;20555;-85
2022/02/05 10:17:17;;;;;;;4.43;1.58;;;18.10;99.90;;;;;;4937132;29;20027;-85
2022/02/05 10:19:53;;;;;;;3.47;2.15;;;20.10;99.90;;;;;;4938075;29;20392;-85
2022/02/05 10:22:20;;;;;;;5.13;2.42;;;16.30;99.90;;;;;;4938639;29;20046;-85
2022/02/05 10:24:53;;;;;;;5.90;2.60;;;16.20;99.90;;;;;;4939690;29;20099;-84
2022/02/05 10:27:33;;;;;;;3.95;1.70;;;14.80;99.90;;;;;;4938958;29;20027;-84
2022/02/05 10:30:22;;;;;;;4.38;1.67;;;15.10;99.90;;;;;;4939178;29;20019;-85
2022/02/05 10:33:02;;;;;;;2.63;1.40;;;22.50;99.90;;;;;;4923905;29;20090;-85
2022/02/05 10:35:35;;;;;;;3.53;1.50;;;25.00;99.90;;;;;;4935539;29;20548;-85
2022/02/05 10:41:01;;;;;;;5.80;1.80;;;26.30;99.90;;;;;;4948114;29;20027;-84
2022/02/05 10:43:34;;;;;;;2.90;2.05;;;24.60;99.90;;;;;;4940084;29;20134;-84
2022/02/05 10:46:02;;;;;;;4.10;1.77;;;26.60;99.90;;;;;;4939545;29;20024;-84
2022/02/05 10:48:28;;;;;;;4.32;1.88;;;27.20;99.90;;;;;;4939086;29;20059;-85
2022/02/05 10:50:59;;;;;;;3.58;1.70;;;28.60;99.90;;;;;;4939187;29;20110;-83
2022/02/05 10:53:36;;;;;;;2.58;1.65;;;27.40;99.90;;;;;;4937583;29;20027;-85
2022/02/05 11:07:10;;;;;;;4.10;1.30;;;26.20;99.90;;;;;;4939121;29;20042;-84
2022/02/05 11:09:38;;;;;;;4.20;1.70;;;27.80;99.90;;;;;;4938978;29;20390;-83
2022/02/05 11:20:16;;;;;;;3.33;1.60;;;27.60;99.90;;;;;;4936016;29;20118;-84
2022/02/05 11:22:48;;;;;;;3.78;1.90;;;25.80;99.90;;;;;;4937656;29;20136;-85
2022/02/05 11:25:14;;;;;;;3.25;1.70;;;28.10;99.90;;;;;;4937019;29;20403;-85
2022/02/05 11:27:45;;;;;;;3.25;1.67;;;27.00;99.90;;;;;;4938457;29;20027;-85
2022/02/05 11:30:43;;;;;;;3.10;1.77;;;25.90;99.90;;;;;;4938630;29;20028;-86
2022/02/05 11:33:29;;;;;;;2.58;1.50;;;27.60;99.90;;;;;;4938499;29;20035;-84
2022/02/05 11:38:36;;;;;;;1.95;1.40;;;25.50;99.90;;;;;;4938138;28;20118;-86
2022/02/05 11:41:06;;;;;;;3.22;1.55;;;26.90;99.90;;;;;;4919556;29;20036;-85
2022/02/05 11:43:34;;;;;;;2.10;1.48;;;28.60;99.90;;;;;;4945521;29;20055;-86
2022/02/05 11:46:18;;;;;;;3.58;1.90;;;30.20;99.90;;;;;;4938690;29;20090;-85
2022/02/05 11:48:51;;;;;;;3.40;1.63;;;29.60;99.90;;;;;;4942901;29;20024;-85
2022/02/05 11:51:25;;;;;;;2.80;1.40;;;30.50;99.90;;;;;;4945868;29;20027;-83
2022/02/05 11:54:00;;;;;;;4.35;1.80;;;29.00;99.90;;;;;;4937631;29;20038;-87
2022/02/05 11:56:48;;;;;;;2.65;1.50;;;28.40;99.90;;;;;;4936442;29;20034;-85
2022/02/05 11:59:20;;;;;;;3.28;1.70;;;27.90;99.90;;;;;;4922355;29;20103;-86
2022/02/05 12:01:46;;;;;;;3.33;1.50;;;28.40;99.90;;;;;;4935820;29;20397;-87
2022/02/05 12:04:14;;;;;;;3.38;1.60;;;28.10;99.90;;;;;;4938846;29;20111;-86
2022/02/05 12:07:04;;;;;;;4.15;1.75;;;28.50;99.90;;;;;;4937784;29;20032;-85
2022/02/05 12:09:42;;;;;;;5.80;1.50;;;28.10;99.90;;;;;;4937855;29;20031;-86
2022/02/05 12:12:27;;;;;;;3.42;1.65;;;27.40;99.90;;;;;;4939193;29;20078;-87
2022/02/05 12:15:11;;;;;;;2.78;1.40;;;26.40;99.90;;;;;;4938199;29;20027;-85
2022/02/05 12:17:59;;;;;;;2.78;1.77;;;26.60;99.90;;;;;;4938104;29;20032;-84
2022/02/05 12:20:28;;;;;;;2.83;1.63;;;26.80;99.90;;;;;;4936365;29;20050;-84
2022/02/05 12:25:58;;;;;;;2.83;1.67;;;25.90;99.90;;;;;;4945556;29;20392;-84
2022/02/05 12:28:34;;;;;;;7.32;3.45;;;26.50;99.90;;;;;;4838547;29;20065;-85
2022/02/05 12:31:02;;;;;;;7.20;5.38;;;27.10;99.90;;;;;;4839692;29;20053;-85
2022/02/05 12:33:44;;;;;;;3.53;1.35;;;26.90;99.90;;;;;;4839623;29;20178;-85
2022/02/05 12:36:10;;;;;;;4.05;1.60;;;25.30;99.90;;;;;;4838844;29;20133;-85
2022/02/05 12:38:43;;;;;;;3.90;1.65;;;26.30;99.90;;;;;;4838884;29;20106;-85
2022/02/05 12:41:12;;;;;;;3.17;1.83;;;26.10;99.90;;;;;;4839546;29;20120;-85
2022/02/05 12:43:57;;;;;;;6.50;4.43;;;25.50;99.90;;;;;;4838174;29;20054;-85
2022/02/05 12:46:35;;;;;;;4.70;3.95;;;25.10;99.90;;;;;;4838278;29;20113;-85
2022/02/05 12:49:09;;;;;;;6.65;6.05;;;25.30;99.90;;;;;;4839940;29;20534;-85
2022/02/05 12:51:40;;;;;;;5.22;4.68;;;24.70;99.90;;;;;;4840750;29;20029;-85
2022/02/05 12:54:13;;;;;;;4.93;2.58;;;26.70;99.90;;;;;;4842213;29;20033;-85
2022/02/05 12:56:41;;;;;;;4.20;1.70;;;27.90;99.90;;;;;;4842604;29;20460;-85
2022/02/05 12:59:14;;;;;;;7.53;3.10;;;27.40;99.90;;;;;;4842755;29;20041;-85
2022/02/05 13:01:54;;;;;;;3.83;1.80;;;26.20;99.90;;;;;;4841761;29;20034;-85
2022/02/05 13:04:21;;;;;;;5.07;2.85;;;24.90;99.90;;;;;;4845047;29;20038;-84
2022/02/05 13:07:04;;;;;;;3.22;2.40;;;24.80;99.90;;;;;;4941330;29;20051;-85
2022/02/05 13:09:32;;;;;;;4.47;2.20;;;24.80;99.90;;;;;;4941581;29;20036;-85
2022/02/05 13:12:09;;;;;;;3.10;1.70;;;25.80;99.90;;;;;;4940851;29;20500;-85
2022/02/05 13:14:47;;;;;;;3.85;1.60;;;25.70;99.90;;;;;;4941702;29;20414;-84
2022/02/05 13:26:52;;;;;;;3.83;1.70;;;25.90;99.90;;;;;;4949500;29;20058;-84
2022/02/05 13:34:07;;;;;;;4.18;1.70;;;24.40;99.90;;;;;;4941006;29;20444;-84
2022/02/05 13:37:23;;;;;;;4.10;1.50;;;23.40;99.90;;;;;;4940608;29;20114;-85
2022/02/05 13:44:25;;;;;;;3.55;1.65;;;24.90;99.90;;;;;;4938509;29;20036;-85
2022/02/05 13:47:06;;;;;;;3.97;1.65;;;24.60;99.90;;;;;;4937421;29;20481;-85
2022/02/05 13:49:34;;;;;;;2.70;1.55;;;24.30;99.90;;;;;;4948017;29;20035;-84
2022/02/05 13:52:13;;;;;;;3.55;1.45;;;24.80;99.90;;;;;;4940033;29;20024;-85
2022/02/05 13:54:43;;;;;;;4.30;1.58;;;24.50;99.90;;;;;;4940210;29;20040;-85
2022/02/05 13:57:14;;;;;;;4.22;1.42;;;24.40;99.90;;;;;;4940196;29;20023;-84
2022/02/05 13:59:54;;;;;;;3.38;1.30;;;24.80;99.90;;;;;;4940614;29;20368;-84
2022/02/05 14:02:20;;;;;;;3.75;1.58;;;24.30;99.90;;;;;;4938126;29;20131;-84
2022/02/05 14:05:09;;;;;;;3.30;1.40;;;24.30;99.90;;;;;;4937826;29;20032;-84
2022/02/05 14:07:46;;;;;;;4.72;1.40;;;22.80;99.90;;;;;;4948009;29;20042;-85
2022/02/05 14:10:16;;;;;;;6.53;1.52;;;23.10;99.90;;;;;;4940475;29;20039;-85
2022/02/05 14:12:56;;;;;;;2.60;1.38;;;22.50;99.90;;;;;;4940561;29;20106;-84
2022/02/05 14:15:23;;;;;;;2.50;1.52;;;22.50;99.90;;;;;;4939751;29;20032;-84
2022/02/05 14:18:15;;;;;;;1.80;1.30;;;22.40;99.90;;;;;;4940140;29;20388;-84
2022/02/05 14:20:59;;;;;;;4.32;1.52;;;21.60;99.90;;;;;;4939273;29;20032;-84
2022/02/05 14:23:27;;;;;;;4.28;1.70;;;20.90;99.90;;;;;;4938172;29;20027;-84
2022/02/05 14:28:34;;;;;;;4.70;1.85;;;21.60;99.90;;;;;;4940670;29;20024;-84
2022/02/05 14:33:44;;;;;;;2.28;1.20;;;21.30;99.90;;;;;;4939707;29;20460;-85
2022/02/05 14:36:34;;;;;;;5.18;1.70;;;21.40;99.90;;;;;;4936762;29;20027;-84
2022/02/05 14:41:44;;;;;;;3.30;1.33;;;21.50;99.90;;;;;;4948346;29;20037;-85
2022/02/05 14:44:11;;;;;;;3.42;1.40;;;21.80;99.90;;;;;;4935766;29;20039;-84
2022/02/05 14:46:36;;;;;;;3.30;1.65;;;21.50;99.90;;;;;;4938040;29;20453;-85
2022/02/05 14:49:02;;;;;;;4.57;1.48;;;21.60;99.90;;;;;;4921145;29;20066;-85
2022/02/05 14:51:28;;;;;;;3.17;1.40;;;20.70;99.90;;;;;;4933654;29;20107;-84
2022/02/05 14:53:58;;;;;;;4.95;1.67;;;21.20;99.90;;;;;;4934498;29;20102;-83
2022/02/05 14:56:24;;;;;;;3.33;1.80;;;21.10;99.90;;;;;;4935301;29;20031;-85
2022/02/05 14:58:50;;;;;;;4.45;1.80;;;20.80;99.90;;;;;;4936374;29;20091;-85
2022/02/05 15:01:21;;;;;;;4.93;1.80;;;20.40;99.90;;;;;;4936463;29;20034;-84
2022/02/05 15:03:47;;;;;;;3.97;1.50;;;20.10;99.90;;;;;;4945051;29;20043;-84
2022/02/05 15:06:18;;;;;;;6.38;1.73;;;20.00;99.90;;;;;;4941192;29;20077;-83
2022/02/05 15:08:46;;;;;;;4.85;1.83;;;20.00;99.90;;;;;;4938665;29;20092;-84
2022/02/05 15:11:13;;;;;;;3.30;1.55;;;19.70;99.90;;;;;;4936458;29;20034;-85
2022/02/05 15:13:39;;;;;;;6.22;1.75;;;19.20;99.90;;;;;;4937836;29;20032;-84
2022/02/05 15:16:05;;;;;;;2.97;1.67;;;19.00;99.90;;;;;;4935940;29;20056;-85
2022/02/05 15:18:31;;;;;;;3.83;1.70;;;18.90;99.90;;;;;;4937817;29;20039;-85
2022/02/05 15:20:57;;;;;;;4.80;2.05;;;18.70;99.90;;;;;;4938669;29;20055;-85
2022/02/05 15:23:23;;;;;;;4.97;1.80;;;18.20;99.90;;;;;;4939146;29;20071;-85
2022/02/05 15:25:50;;;;;;;4.60;1.80;;;19.00;99.90;;;;;;4935976;29;20019;-84
2022/02/05 15:28:15;;;;;;;4.28;1.60;;;18.90;99.90;;;;;;4938629;29;20089;-85
2022/02/05 15:30:41;;;;;;;3.40;1.58;;;18.90;99.90;;;;;;4938233;29;20023;-85
2022/02/05 15:33:07;;;;;;;5.53;1.90;;;18.40;99.90;;;;;;4938713;29;20431;-85
2022/02/05 15:35:33;;;;;;;4.68;1.50;;;18.30;99.90;;;;;;4938145;29;20438;-85
2022/02/05 15:38:06;;;;;;;5.18;1.73;;;17.90;99.90;;;;;;4934425;29;20103;-85
2022/02/05 15:46:00;;;;;;;3.03;1.33;;;17.40;99.90;;;;;;4939556;29;20039;-85
2022/02/05 15:48:25;;;;;;;2.38;1.27;;;16.80;99.90;;;;;;4938910;29;20052;-87
2022/02/05 15:50:52;;;;;;;4.15;1.50;;;16.70;99.90;;;;;;4938746;29;20039;-88
2022/02/05 15:53:20;;;;;;;2.92;1.65;;;17.00;99.90;;;;;;4919637;29;20468;-87
2022/02/05 15:55:46;;;;;;;5.25;1.85;;;17.30;99.90;;;;;;4937349;29;20039;-88
2022/02/05 15:58:19;;;;;;;5.13;1.80;;;16.90;99.90;;;;;;4921989;29;20024;-88
2022/02/05 16:00:44;;;;;;;5.90;1.80;;;16.80;99.90;;;;;;4938466;29;20087;-87
2022/02/05 16:03:11;;;;;;;2.85;1.30;;;16.40;99.90;;;;;;4938529;29;20047;-87
2022/02/05 16:05:37;;;;;;;4.93;2.00;;;16.50;99.90;;;;;;4939127;29;20141;-87
2022/02/05 16:08:03;;;;;;;5.55;1.73;;;15.90;99.90;;;;;;4934420;29;20114;-87
2022/02/05 16:10:29;;;;;;;4.65;1.92;;;15.30;99.90;;;;;;4939028;29;20028;-87
2022/02/05 16:12:54;;;;;;;2.72;1.42;;;15.10;99.90;;;;;;4938439;29;20050;-87
2022/02/05 16:15:20;;;;;;;4.57;1.65;;;14.70;99.90;;;;;;4938879;29;20020;-87
2022/02/05 16:17:48;;;;;;;4.93;1.65;;;14.70;99.90;;;;;;4921574;29;20071;-87
2022/02/05 16:20:15;;;;;;;4.95;1.92;;;14.50;99.90;;;;;;4935833;29;20476;-87